Share

Hanamaulu, HI

Lihue (PHLI) Elev 102 ft | 21.98 °N, 159.34 °W | Change Station

Current weather conditions updated 39 minutes ago

Scattered Clouds
Scattered Clouds
77 °F
Feels Like 77 °F
N
16
Wind Variable Wind from NNE
Sunrise 6:15 AM
Sunset 6:58 PM
Moon Waning Gibbous

Tomorrow is forecast to be nearly the same temperature as today. Showers.

Pressure 30.09 in
Visibility 10.0 miles
Clouds Scattered Clouds 1800 ft
Dew Point 68 °F
Humidity 74%
Rainfall 0.00 in
Snow Depth Not available.
UV 2 out of 16
Pollen Not available.
Air Quality Not available.
Flu Activity Sporadic
METAR PHLI 180253Z 03014KT 10SM SCT018 25/20 A3010 RMK AO2 SLP190 60000 T02500200 55006

More Conditions Fewer Conditions

Pressure 30.09 in
Visibility 10.0 miles
Clouds Scattered Clouds 1800 ft
Dew Point 68 °F
Humidity 74%
Rainfall 0.00 in
Snow Depth Not available.
UV 2 out of 16
Pollen Not available.
Air Quality Not available.
Flu Activity Sporadic
METAR PHLI 180253Z 03014KT 10SM SCT018 25/20 A3010 RMK AO2 SLP190 60000 T02500200 55006

More Conditions Fewer Conditions

10-Day Forecast

Almanac

Astronomy

Apr. 17, 2014 Rise Set
Actual Time 6:15 AM HST 6:58 PM HST
Civil Twilight 5:53 AM HST 7:20 PM HST
Nautical Twilight 5:26 AM HST 7:47 PM HST
Astronomical Twilight 4:58 AM HST 8:15 PM HST
Moon 9:40 PM HST (4/17) 8:10 AM HST (4/17)
Length of Visible Light 13h 27m
Length of Day
12h 42m
Tomorrow will be 1m 11s longer.
Waning Gibbous, 91% of the Moon is Illuminated
Today
Waning Gibbous
Apr 22
Last Quarter
Apr 29
New
May 6
First Quarter
May 14
Full

Today's Extremes

State Highs State Lows

Community

  • SUNRISE THROUGH THE TREES.
    SUNRISE THROUGH THE TREES.
  • Dog Wood Blossoms
    Dog Wood Blossoms
  • Morning Light
    Morning Light
  • New Day
    New Day
  • Lake Michigan Sunrise
    Lake Michigan Sunrise

WunderPhotos

Upload Photos

1,702,240 photos uploaded!

WunderBlogs® & News

Nearby

Snow Depth

Station Depth Elevation
No new snow has been reported.

Coastal Water Temperatures

Place Temperature
No Stations Reporting

Earthquake Activity

City Distance Mag. Time & Date
No recent earthquake activity has been reported nearby.
Minimum magnitude displayed is 2.5.

Nearby Weather Stations

Station Location Temp. Heat Index Dew Point Humidity Wind Precip. Elev Updated Type
Kalihiwai Ridge, Kilauea, HI 74.8 °F 75 °F 70 °F 84% SE  at  1.0 mph 0.00 in / hr 325 ft 5:32 PM HST Rapid Fire
Pooku, Princeville, HI 72.8 °F 70 °F 70 °F 90% ESE  at  0.0 mph 0.00 in / hr 417 ft 5:32 PM HST Rapid Fire
Na Pali Properties on Kauai, Hanalei, HI 74.8 °F 74 °F 70 °F 86% North  at  3.6 mph 0.00 in / hr 23 ft 5:32 PM HST Rapid Fire
North Shore of Kauai, Princeville, HI 74.6 °F 75 °F 68 °F 81% East  at  7.8 mph 0.00 in / hr 0 ft 5:32 PM HST Rapid Fire

Show More Stations Show Fewer Stations

What do you think?

We're not finished. Please let us know what you like, what you don't like, and what you are still missing.